createdAt,value
2022-08-19T00:01:52.869Z,6.32
2022-08-19T00:04:22.172Z,6.20
2022-08-19T00:06:49.075Z,6.43
2022-08-19T00:09:17.225Z,6.80
2022-08-19T00:11:44.686Z,6.50
2022-08-19T00:14:12.512Z,6.50
2022-08-19T00:16:39.792Z,6.75
2022-08-19T00:19:06.884Z,6.07
2022-08-19T00:21:33.611Z,6.10
2022-08-19T00:24:01.118Z,6.43
2022-08-19T00:26:28.622Z,6.18
2022-08-19T00:28:55.668Z,6.53
2022-08-19T00:31:22.728Z,6.38
2022-08-19T00:33:51.433Z,6.47
2022-08-19T00:36:18.166Z,5.60
2022-08-19T00:38:44.947Z,5.93
2022-08-19T00:41:14.371Z,6.10
2022-08-19T00:43:42.217Z,5.25
2022-08-19T00:46:08.837Z,5.60
2022-08-19T00:48:37.295Z,5.82
2022-08-19T00:51:05.591Z,5.45
2022-08-19T00:53:32.787Z,5.65
2022-08-19T00:56:00.225Z,5.50
2022-08-19T00:58:29.315Z,5.63
2022-08-19T01:00:55.926Z,5.20
2022-08-19T01:03:22.708Z,5.38
2022-08-19T01:05:51.085Z,5.50
2022-08-19T01:08:18.318Z,5.25
2022-08-19T01:10:47.617Z,5.40
2022-08-19T01:13:22.992Z,4.85
2022-08-19T01:16:08.103Z,5.97
2022-08-19T01:18:39.208Z,5.10
2022-08-19T01:21:13.062Z,5.28
2022-08-19T01:23:45.699Z,5.30
2022-08-19T01:26:18.445Z,5.30
2022-08-19T01:28:47.033Z,5.27
2022-08-19T01:31:26.752Z,5.15
2022-08-19T01:33:55.754Z,5.75
2022-08-19T01:36:34.620Z,5.80
2022-08-19T01:39:02.312Z,5.13
2022-08-19T01:41:29.114Z,4.97
2022-08-19T01:44:13.711Z,5.22
2022-08-19T01:46:44.650Z,5.40
2022-08-19T01:49:12.301Z,6.03
2022-08-19T01:51:40.171Z,5.35
2022-08-19T01:54:07.522Z,6.18
2022-08-19T01:56:34.111Z,5.00
2022-08-19T01:59:06.235Z,5.65
2022-08-19T02:01:37.191Z,5.47
2022-08-19T02:04:03.971Z,5.82
2022-08-19T02:06:30.757Z,5.60
2022-08-19T02:08:57.815Z,5.28
2022-08-19T02:11:27.636Z,5.47
2022-08-19T02:13:54.878Z,5.30
2022-08-19T02:16:21.745Z,5.30
2022-08-19T02:18:49.544Z,6.18
2022-08-19T02:21:17.683Z,6.22
2022-08-19T02:23:44.465Z,5.47
2022-08-19T02:26:13.405Z,5.82
2022-08-19T02:28:40.733Z,5.30
2022-08-19T02:31:16.364Z,5.35
2022-08-19T02:33:42.975Z,5.50
2022-08-19T02:36:10.204Z,5.50
2022-08-19T02:38:38.093Z,5.38
2022-08-19T02:41:06.314Z,5.65
2022-08-19T02:43:36.885Z,5.53
2022-08-19T02:46:15.826Z,6.15
2022-08-19T02:48:42.530Z,5.28
2022-08-19T02:51:09.205Z,5.50
2022-08-19T02:53:36.086Z,5.88
2022-08-19T02:56:03.074Z,5.55
2022-08-19T02:58:29.887Z,6.28
2022-08-19T03:00:57.411Z,5.75
2022-08-19T03:03:24.639Z,5.90
2022-08-19T03:05:56.439Z,5.57
2022-08-19T03:08:25.258Z,5.93
2022-08-19T03:10:53.072Z,5.50
2022-08-19T03:13:19.765Z,5.75
2022-08-19T03:15:47.749Z,5.72
2022-08-19T03:18:14.496Z,5.55
2022-08-19T03:20:45.827Z,5.63
2022-08-19T03:23:13.681Z,5.60
2022-08-19T03:25:59.295Z,5.78
2022-08-19T03:28:35.265Z,5.97
2022-08-19T03:31:43.871Z,6.03
2022-08-19T03:34:02.058Z,5.65
2022-08-19T03:36:30.379Z,6.10
2022-08-19T03:39:00.121Z,6.10
2022-08-19T03:41:44.212Z,6.32
2022-08-19T03:44:16.672Z,5.93
2022-08-19T03:46:45.254Z,5.80
2022-08-19T03:49:14.174Z,5.82
2022-08-19T03:51:41.918Z,6.22
2022-08-19T03:54:11.603Z,6.32
2022-08-19T03:56:39.179Z,6.43
2022-08-19T03:59:07.052Z,5.80
2022-08-19T04:01:35.291Z,5.53
2022-08-19T04:04:03.379Z,6.28
2022-08-19T04:06:33.148Z,5.93
2022-08-19T04:09:00.393Z,5.88
2022-08-19T04:11:43.389Z,5.80
2022-08-19T04:14:15.374Z,5.60
2022-08-19T04:16:42.127Z,6.13
2022-08-19T04:19:09.047Z,6.30
2022-08-19T04:21:35.818Z,5.40
2022-08-19T04:24:03.779Z,5.97
2022-08-19T04:26:34.980Z,5.95
2022-08-19T04:29:12.133Z,6.32
2022-08-19T04:31:39.466Z,5.70
2022-08-19T04:34:07.433Z,6.30
2022-08-19T04:36:35.758Z,6.30
2022-08-19T04:39:06.119Z,5.90
2022-08-19T04:41:52.179Z,5.93
2022-08-19T04:44:19.123Z,5.95
2022-08-19T04:46:51.438Z,6.03
2022-08-19T04:49:23.322Z,5.97
2022-08-19T04:51:50.694Z,5.97
2022-08-19T04:54:37.291Z,5.95
2022-08-19T04:57:07.094Z,6.00
2022-08-19T04:59:34.633Z,6.80
2022-08-19T05:02:01.297Z,5.93
2022-08-19T05:04:33.272Z,6.22
2022-08-19T05:07:00.967Z,6.00
2022-08-19T05:09:28.661Z,5.70
2022-08-19T05:12:15.534Z,5.78
2022-08-19T05:14:42.146Z,6.50
2022-08-19T05:17:26.443Z,5.78
2022-08-19T05:22:38.907Z,5.93
2022-08-19T05:25:13.841Z,5.60
2022-08-19T05:27:41.820Z,6.15
2022-08-19T05:30:09.075Z,5.97
2022-08-19T05:32:35.910Z,5.47
2022-08-19T05:35:02.570Z,5.35
2022-08-19T05:37:29.431Z,5.40
2022-08-19T05:39:56.395Z,5.50
2022-08-19T05:42:24.136Z,5.53
2022-08-19T05:44:51.498Z,5.55
2022-08-19T05:47:19.845Z,5.20
2022-08-19T05:49:46.525Z,5.40
2022-08-19T05:52:14.525Z,5.50
2022-08-19T05:54:50.985Z,5.28
2022-08-19T05:57:25.380Z,6.22
2022-08-19T06:02:26.908Z,6.38
2022-08-19T06:04:53.569Z,5.80
2022-08-19T06:07:20.624Z,5.97
2022-08-19T06:09:59.620Z,5.95
2022-08-19T06:12:32.641Z,5.30
2022-08-19T06:15:01.554Z,5.72
2022-08-19T06:17:32.259Z,5.47
2022-08-19T06:19:59.597Z,4.80
2022-08-19T06:22:26.895Z,4.88
2022-08-19T06:24:54.933Z,5.10
2022-08-19T06:27:21.903Z,4.65
2022-08-19T06:29:48.591Z,5.30
2022-08-19T06:32:15.999Z,5.28
2022-08-19T06:34:43.005Z,5.43
2022-08-19T06:37:09.668Z,4.88
2022-08-19T06:39:39.413Z,4.70
2022-08-19T06:42:10.308Z,4.82
2022-08-19T06:44:42.562Z,4.80
2022-08-19T06:47:14.910Z,4.78
2022-08-19T06:49:50.072Z,4.53
2022-08-19T06:52:17.073Z,4.93
2022-08-19T06:54:56.533Z,5.38
2022-08-19T06:57:26.909Z,5.10
2022-08-19T06:59:53.920Z,5.05
2022-08-19T07:02:21.751Z,5.30
2022-08-19T07:04:48.718Z,4.85
2022-08-19T07:07:21.533Z,5.40
2022-08-19T07:09:58.200Z,5.28
2022-08-19T07:12:29.658Z,5.75
2022-08-19T07:14:57.962Z,5.75
2022-08-19T07:17:24.841Z,6.32
2022-08-19T07:19:51.861Z,5.30
2022-08-19T07:22:21.713Z,5.30
2022-08-19T07:24:51.337Z,5.40
2022-08-19T07:27:22.512Z,5.70
2022-08-19T07:29:56.289Z,5.95
2022-08-19T07:32:26.921Z,5.10
2022-08-19T07:34:53.654Z,5.28
2022-08-19T07:37:20.289Z,5.70
2022-08-19T07:39:47.170Z,5.75
2022-08-19T07:42:14.729Z,5.28
2022-08-19T07:44:41.618Z,5.57
2022-08-19T07:47:08.568Z,5.35
2022-08-19T07:49:55.346Z,5.65
2022-08-19T07:52:21.966Z,5.32
2022-08-19T07:54:48.615Z,5.40
2022-08-19T07:57:15.289Z,6.20
2022-08-19T07:59:41.956Z,5.78
2022-08-19T08:02:09.722Z,6.05
2022-08-19T08:04:54.958Z,5.18
2022-08-19T08:07:40.276Z,5.82
2022-08-19T08:10:20.407Z,5.82
2022-08-19T08:13:08.802Z,7.53
2022-08-19T08:15:36.532Z,5.90
2022-08-19T08:18:07.292Z,5.68
2022-08-19T08:20:34.632Z,5.45
2022-08-19T08:23:21.199Z,5.35
2022-08-19T08:25:49.443Z,5.28
2022-08-19T08:28:17.763Z,5.47
2022-08-19T08:30:46.788Z,5.35
2022-08-19T08:35:46.698Z,5.13
2022-08-19T08:38:13.521Z,5.40
2022-08-19T08:40:43.656Z,5.65
2022-08-19T08:43:24.306Z,5.53
2022-08-19T08:45:56.089Z,5.35
2022-08-19T08:48:28.302Z,6.00
2022-08-19T08:50:54.914Z,5.22
2022-08-19T08:53:26.323Z,7.10
2022-08-19T08:55:57.004Z,6.00
2022-08-19T08:58:32.813Z,5.50
2022-08-19T09:00:59.547Z,5.40
2022-08-19T09:03:28.045Z,5.60
2022-08-19T09:06:11.942Z,5.20
2022-08-19T09:09:11.779Z,5.60
2022-08-19T09:11:44.485Z,5.07
2022-08-19T09:14:52.284Z,5.40
2022-08-19T09:17:27.823Z,5.30
2022-08-19T09:20:05.533Z,5.20
2022-08-19T09:22:32.674Z,5.22
2022-08-19T09:24:59.367Z,5.43
2022-08-19T09:27:42.245Z,5.80
2022-08-19T09:30:13.863Z,7.13
2022-08-19T09:32:42.839Z,5.75
2022-08-19T09:35:10.163Z,5.43
2022-08-19T09:37:36.883Z,5.82
2022-08-19T09:40:04.725Z,5.30
2022-08-19T09:42:35.345Z,6.00
2022-08-19T09:45:03.407Z,6.03
2022-08-19T09:47:33.466Z,5.70
2022-08-19T09:50:00.285Z,5.80
2022-08-19T09:52:32.713Z,5.82
2022-08-19T09:55:00.031Z,5.72
2022-08-19T09:57:26.966Z,5.40
2022-08-19T09:59:54.452Z,5.68
2022-08-19T10:02:22.336Z,5.65
2022-08-19T10:05:07.667Z,5.22
2022-08-19T10:07:36.567Z,5.40
2022-08-19T10:10:07.762Z,5.43
2022-08-19T10:12:35.214Z,4.97
2022-08-19T10:15:02.502Z,5.30
2022-08-19T10:17:31.699Z,5.20
2022-08-19T10:20:00.959Z,5.80
2022-08-19T10:22:27.757Z,5.50
2022-08-19T10:24:54.615Z,5.32
2022-08-19T10:27:21.701Z,5.45
2022-08-19T10:29:49.040Z,5.95
2022-08-19T10:32:15.838Z,5.70
2022-08-19T10:34:48.179Z,5.47
2022-08-19T10:37:16.111Z,5.45
2022-08-19T10:39:56.047Z,6.07
2022-08-19T10:42:22.871Z,5.10
2022-08-19T10:44:49.573Z,5.45
2022-08-19T10:47:25.691Z,5.10
2022-08-19T10:50:14.393Z,5.82
2022-08-19T10:52:49.995Z,5.22
2022-08-19T10:55:36.899Z,5.40
2022-08-19T10:58:03.593Z,5.47
2022-08-19T11:00:32.090Z,5.35
2022-08-19T11:02:58.709Z,5.00
2022-08-19T11:05:25.557Z,5.55
2022-08-19T11:07:52.882Z,5.15
2022-08-19T11:10:21.937Z,5.22
2022-08-19T11:12:49.245Z,5.60
2022-08-19T11:15:16.214Z,5.28
2022-08-19T11:17:44.697Z,5.70
2022-08-19T11:20:13.230Z,5.15
2022-08-19T11:22:41.845Z,5.13
2022-08-19T11:25:09.871Z,4.82
2022-08-19T11:27:47.244Z,6.00
2022-08-19T11:30:14.529Z,5.68
2022-08-19T11:32:45.927Z,5.18
2022-08-19T11:35:16.908Z,5.32
2022-08-19T11:37:43.600Z,4.80
2022-08-19T11:40:10.991Z,5.05
2022-08-19T11:42:56.602Z,5.32
2022-08-19T11:45:27.908Z,5.00
2022-08-19T11:47:54.651Z,5.55
2022-08-19T11:50:21.623Z,4.97
2022-08-19T11:52:48.247Z,4.90
2022-08-19T11:55:15.040Z,4.90
2022-08-19T11:57:44.797Z,5.20
2022-08-19T12:00:13.824Z,5.85
2022-08-19T12:02:40.975Z,5.53
2022-08-19T12:05:11.974Z,4.80
2022-08-19T12:07:39.403Z,5.03
2022-08-19T12:10:06.368Z,5.43
2022-08-19T12:12:33.080Z,5.28
2022-08-19T12:14:59.810Z,5.43
2022-08-19T12:17:27.621Z,5.30
2022-08-19T12:19:54.761Z,5.07
2022-08-19T12:22:23.055Z,5.20
2022-08-19T12:24:51.811Z,4.82
2022-08-19T12:27:23.913Z,5.28
2022-08-19T12:30:07.115Z,5.13
2022-08-19T12:32:34.714Z,4.78
2022-08-19T12:35:02.159Z,4.32
2022-08-19T12:37:28.867Z,4.38
2022-08-19T12:39:55.620Z,4.93
2022-08-19T12:42:23.664Z,4.82
2022-08-19T12:44:50.579Z,4.60
2022-08-19T12:47:19.632Z,4.40
2022-08-19T12:49:55.201Z,4.72
2022-08-19T12:52:24.892Z,4.10
2022-08-19T12:54:53.879Z,4.68
2022-08-19T12:57:22.121Z,4.72
2022-08-19T12:59:54.908Z,4.68
2022-08-19T13:02:22.337Z,4.63
2022-08-19T13:04:48.982Z,4.60
2022-08-19T13:07:15.636Z,4.72
2022-08-19T13:09:43.584Z,4.63
2022-08-19T13:12:14.118Z,4.70
2022-08-19T13:14:42.565Z,4.75
2022-08-19T13:17:09.808Z,4.75
2022-08-19T13:19:37.824Z,4.20
2022-08-19T13:22:04.564Z,4.97
2022-08-19T13:24:43.910Z,5.03
2022-08-19T13:27:13.117Z,4.60
2022-08-19T13:30:00.494Z,4.88
2022-08-19T13:32:45.632Z,4.53
2022-08-19T13:35:16.648Z,4.40
2022-08-19T13:37:43.635Z,4.60
2022-08-19T13:40:24.269Z,4.43
2022-08-19T13:42:52.232Z,4.70
2022-08-19T13:45:23.616Z,4.13
2022-08-19T13:47:53.714Z,5.05
2022-08-19T13:50:26.539Z,4.50
2022-08-19T13:52:54.196Z,4.53
2022-08-19T13:55:24.885Z,4.50
2022-08-19T13:57:56.433Z,4.40
2022-08-19T14:00:24.936Z,4.20
2022-08-19T14:02:52.479Z,4.60
2022-08-19T14:05:19.383Z,4.43
2022-08-19T14:07:46.423Z,4.57
2022-08-19T14:10:13.417Z,4.30
2022-08-19T14:12:40.220Z,4.25
2022-08-19T14:15:07.597Z,4.22
2022-08-19T14:17:35.814Z,4.10
2022-08-19T14:20:10.550Z,3.92
2022-08-19T14:22:38.366Z,3.83
2022-08-19T14:25:06.418Z,3.92
2022-08-19T14:27:36.940Z,3.70
2022-08-19T14:30:08.065Z,4.35
2022-08-19T14:32:35.246Z,4.07
2022-08-19T14:35:02.720Z,4.32
2022-08-19T14:37:29.637Z,3.90
2022-08-19T14:39:56.483Z,3.72
2022-08-19T14:42:23.259Z,3.88
2022-08-19T14:44:50.063Z,3.38
2022-08-19T14:47:17.449Z,3.95
2022-08-19T14:49:48.484Z,4.07
2022-08-19T14:52:15.295Z,3.95
2022-08-19T14:54:41.911Z,3.25
2022-08-19T14:57:08.541Z,4.00
2022-08-19T14:59:36.066Z,3.65
2022-08-19T15:02:20.414Z,4.07
2022-08-19T15:04:58.462Z,3.90
2022-08-19T15:07:28.270Z,4.20
2022-08-19T15:09:55.689Z,4.38
2022-08-19T15:12:23.575Z,4.00
2022-08-19T15:14:55.993Z,4.35
2022-08-19T15:17:45.019Z,7.63
2022-08-19T15:20:22.263Z,7.78
2022-08-19T15:22:49.102Z,5.40
2022-08-19T15:25:16.613Z,6.68
2022-08-19T15:27:44.287Z,6.82
2022-08-19T15:30:11.960Z,11.40
2022-08-19T15:32:38.958Z,6.45
2022-08-19T15:35:06.427Z,5.85
2022-08-19T15:37:37.056Z,6.05
2022-08-19T15:40:05.425Z,6.18
2022-08-19T15:42:32.212Z,7.00
2022-08-19T15:45:01.503Z,6.32
2022-08-19T15:47:35.332Z,6.47
2022-08-19T15:50:10.550Z,6.63
2022-08-19T15:52:40.437Z,5.97
2022-08-19T15:55:34.030Z,6.25
2022-08-19T16:01:14.952Z,6.55
2022-08-19T16:04:00.391Z,5.97
2022-08-19T16:06:27.203Z,6.35
2022-08-19T16:08:58.417Z,5.88
2022-08-19T16:11:29.358Z,6.00
2022-08-19T16:13:58.003Z,6.10
2022-08-19T16:16:34.012Z,6.20
2022-08-19T16:19:02.483Z,6.22
2022-08-19T16:21:33.428Z,7.15
2022-08-19T16:24:05.485Z,6.20
2022-08-19T16:26:32.911Z,7.20
2022-08-19T16:28:59.828Z,7.07
2022-08-19T16:31:26.527Z,6.53
2022-08-19T16:33:53.171Z,7.00
2022-08-19T16:36:19.847Z,6.68
2022-08-19T16:38:49.409Z,6.78
2022-08-19T16:41:16.126Z,7.22
2022-08-19T16:43:42.754Z,6.63
2022-08-19T16:46:09.677Z,6.30
2022-08-19T16:48:39.159Z,6.85
2022-08-19T16:51:09.411Z,5.93
2022-08-19T16:53:36.500Z,6.05
2022-08-19T16:56:03.286Z,6.53
2022-08-19T16:58:31.323Z,6.43
2022-08-19T17:01:02.053Z,5.72
2022-08-19T17:03:35.967Z,5.60
2022-08-19T17:06:04.033Z,6.40
2022-08-19T17:08:31.635Z,5.72
2022-08-19T17:11:17.014Z,5.65
2022-08-19T17:13:47.771Z,5.25
2022-08-19T17:16:15.373Z,5.53
2022-08-19T17:18:42.019Z,4.95
2022-08-19T17:21:08.665Z,5.80
2022-08-19T17:23:42.925Z,5.32
2022-08-19T17:26:17.228Z,6.07
2022-08-19T17:31:12.337Z,5.57
2022-08-19T17:33:41.455Z,4.95
2022-08-19T17:36:08.918Z,4.80
2022-08-19T17:38:36.084Z,5.47
2022-08-19T17:41:06.066Z,4.45
2022-08-19T17:43:40.062Z,4.53
2022-08-19T17:46:11.190Z,3.88
2022-08-19T17:48:38.964Z,3.85
2022-08-19T17:51:33.794Z,4.40
2022-08-19T17:54:00.620Z,4.05
2022-08-19T17:56:28.791Z,3.80
2022-08-19T17:58:59.750Z,4.20
2022-08-19T18:01:30.738Z,4.85
2022-08-19T18:04:10.618Z,3.60
2022-08-19T18:06:37.256Z,4.47
2022-08-19T18:09:06.970Z,4.57
2022-08-19T18:11:34.026Z,4.88
2022-08-19T18:14:00.715Z,4.93
2022-08-19T18:16:27.351Z,4.80
2022-08-19T18:18:54.721Z,4.50
2022-08-19T18:21:21.925Z,4.03
2022-08-19T18:23:48.878Z,5.07
2022-08-19T18:26:15.807Z,4.40
2022-08-19T18:28:49.370Z,4.38
2022-08-19T18:31:17.211Z,4.47
2022-08-19T18:33:44.827Z,3.95
2022-08-19T18:36:11.556Z,4.50
2022-08-19T18:38:56.951Z,4.80
2022-08-19T18:41:42.256Z,5.22
2022-08-19T18:44:28.533Z,4.93
2022-08-19T18:47:13.825Z,5.00
2022-08-19T18:49:40.783Z,6.60
2022-08-19T18:52:07.557Z,4.63
2022-08-19T18:54:34.509Z,5.07
2022-08-19T18:57:01.367Z,4.85
2022-08-19T18:59:30.280Z,5.82
2022-08-19T19:01:57.776Z,5.22
2022-08-19T19:04:26.865Z,4.70
2022-08-19T19:06:53.578Z,4.90
2022-08-19T19:09:22.512Z,4.25
2022-08-19T19:11:51.453Z,4.40
2022-08-19T19:14:47.560Z,4.40
2022-08-19T19:17:13.837Z,5.03
2022-08-19T19:19:43.034Z,4.43
2022-08-19T19:22:11.683Z,5.20
2022-08-19T19:24:38.644Z,4.70
2022-08-19T19:27:10.172Z,4.78
2022-08-19T19:29:36.929Z,4.70
2022-08-19T19:32:05.121Z,5.22
2022-08-19T19:34:31.787Z,4.50
2022-08-19T19:36:58.542Z,4.25
2022-08-19T19:39:44.925Z,3.83
2022-08-19T19:42:19.970Z,3.50
2022-08-19T19:44:50.696Z,3.60
2022-08-19T19:47:18.907Z,4.07
2022-08-19T19:50:10.748Z,3.67
2022-08-19T19:52:33.620Z,4.50
2022-08-19T19:55:01.590Z,4.07
2022-08-19T19:57:29.438Z,3.65
2022-08-19T19:59:56.522Z,3.40
2022-08-19T20:02:25.302Z,4.25
2022-08-19T20:04:52.231Z,4.32
2022-08-19T20:07:38.926Z,4.22
2022-08-19T20:10:05.896Z,4.30
2022-08-19T20:12:32.521Z,3.80
2022-08-19T20:14:59.164Z,4.47
2022-08-19T20:17:25.817Z,4.40
2022-08-19T20:19:53.576Z,4.22
2022-08-19T20:22:20.209Z,5.07
2022-08-19T20:24:48.033Z,5.22
2022-08-19T20:27:14.634Z,5.18
2022-08-19T20:29:44.360Z,4.78
2022-08-19T20:32:12.489Z,4.35
2022-08-19T20:34:40.189Z,5.05
2022-08-19T20:37:09.699Z,5.35
2022-08-19T20:39:36.935Z,5.32
2022-08-19T20:42:03.804Z,4.97
2022-08-19T20:44:30.480Z,6.35
2022-08-19T20:47:01.728Z,5.45
2022-08-19T20:49:29.741Z,4.93
2022-08-19T20:51:56.711Z,5.50
2022-08-19T20:54:24.106Z,4.82
2022-08-19T20:56:51.107Z,4.28
2022-08-19T20:59:17.795Z,4.35
2022-08-19T21:01:44.438Z,5.28
2022-08-19T21:04:11.037Z,4.95
2022-08-19T21:06:38.625Z,4.68
2022-08-19T21:09:08.903Z,4.80
2022-08-19T21:11:36.129Z,4.68
2022-08-19T21:14:02.961Z,4.78
2022-08-19T21:16:32.549Z,4.68
2022-08-19T21:18:59.235Z,4.57
2022-08-19T21:21:25.865Z,5.57
2022-08-19T21:23:52.984Z,6.38
2022-08-19T21:26:19.569Z,5.15
2022-08-19T21:28:46.344Z,4.55
2022-08-19T21:31:15.308Z,4.60
2022-08-19T21:33:42.003Z,4.10
2022-08-19T21:36:08.950Z,3.85
2022-08-19T21:38:35.825Z,4.75
2022-08-19T21:41:05.717Z,4.47
2022-08-19T21:43:33.162Z,3.65
2022-08-19T21:45:59.804Z,4.18
2022-08-19T21:48:26.442Z,4.43
2022-08-19T21:50:53.112Z,4.88
2022-08-19T21:53:22.997Z,4.25
2022-08-19T21:55:53.076Z,4.60
2022-08-19T21:58:28.301Z,5.20
2022-08-19T22:00:57.734Z,4.50
2022-08-19T22:03:25.857Z,4.28
2022-08-19T22:05:52.646Z,4.32
2022-08-19T22:08:19.327Z,4.43
2022-08-19T22:10:46.534Z,4.80
2022-08-19T22:13:13.346Z,4.20
2022-08-19T22:15:41.093Z,5.03
2022-08-19T22:18:07.736Z,4.43
2022-08-19T22:20:34.790Z,5.30
2022-08-19T22:23:02.715Z,4.88
2022-08-19T22:25:34.521Z,4.63
2022-08-19T22:28:01.928Z,4.97
2022-08-19T22:30:33.134Z,4.82
2022-08-19T22:33:01.414Z,5.13
2022-08-19T22:35:31.393Z,4.72
2022-08-19T22:38:01.157Z,5.32
2022-08-19T22:40:28.512Z,6.45
2022-08-19T22:43:02.217Z,5.40
2022-08-19T22:45:29.120Z,6.10
2022-08-19T22:47:56.024Z,4.40
2022-08-19T22:50:23.060Z,4.35
2022-08-19T22:52:51.727Z,5.90
2022-08-19T22:55:18.981Z,5.05
2022-08-19T22:57:45.598Z,5.30
2022-08-19T23:00:13.616Z,5.13
2022-08-19T23:02:52.280Z,5.40
2022-08-19T23:05:21.928Z,5.43
2022-08-19T23:07:52.581Z,6.75
2022-08-19T23:10:27.143Z,4.35
2022-08-19T23:12:55.115Z,3.97
2022-08-19T23:15:24.345Z,4.82
2022-08-19T23:17:54.321Z,5.55
2022-08-19T23:20:21.259Z,4.57
2022-08-19T23:22:50.960Z,4.78
2022-08-19T23:25:25.741Z,4.85
2022-08-19T23:28:11.045Z,4.80
2022-08-19T23:30:43.766Z,4.10
2022-08-19T23:33:51.017Z,4.20
2022-08-19T23:36:18.871Z,5.00
2022-08-19T23:38:46.568Z,4.93
2022-08-19T23:41:14.442Z,4.38
2022-08-19T23:43:42.006Z,4.40
2022-08-19T23:46:10.711Z,3.97
2022-08-19T23:48:38.999Z,4.50
2022-08-19T23:51:07.820Z,5.07
2022-08-19T23:53:39.489Z,4.90
2022-08-19T23:56:07.593Z,4.78
2022-08-19T23:58:35.284Z,4.68
